Time;durP1;ratioP1;P1;durP2;ratioP2;P2;SDS_P1;SDS_P2;PMS_P1;PMS_P2;Temp;Humidity;BMP_temperature;BMP_pressure;BME280_temperature;BME280_humidity;BME280_pressure;Samples;Min_cycle;Max_cycle;Signal;HPM_P1;HPM_P2
2023/05/22 00:00:15;;;;;;;9.20;7.00;;;;;;;12.57;62.95;100120.39;105964;1257;71575;-77
2023/05/22 00:02:42;;;;;;;9.30;7.10;;;;;;;12.52;63.12;100118.04;106120;1254;62881;-74
2023/05/22 00:05:10;;;;;;;12.80;7.30;;;;;;;12.50;63.13;100118.48;105807;1257;62222;-73
2023/05/22 00:07:38;;;;;;;10.30;6.90;;;;;;;12.48;63.28;100118.89;106078;1257;74827;-72
2023/05/22 00:10:05;;;;;;;8.50;6.40;;;;;;;12.47;63.23;100116.52;106079;1257;72667;-73
2023/05/22 00:12:32;;;;;;;8.70;6.40;;;;;;;12.45;63.19;100118.36;106118;1251;75044;-70
2023/05/22 00:14:59;;;;;;;9.00;6.80;;;;;;;12.42;63.24;100113.36;105992;1254;60872;-72
2023/05/22 00:17:29;;;;;;;10.80;6.40;;;;;;;12.40;63.37;100113.02;106209;1257;61230;-71
2023/05/22 00:20:03;;;;;;;10.00;7.40;;;;;;;12.37;63.52;100114.14;106310;1259;74311;-72
2023/05/22 00:22:30;;;;;;;10.70;6.90;;;;;;;12.37;63.60;100109.95;106287;1253;72717;-73
2023/05/22 00:24:57;;;;;;;9.30;7.10;;;;;;;12.35;63.65;100112.69;106293;1254;74744;-74
2023/05/22 00:27:24;;;;;;;7.90;7.00;;;;;;;12.31;63.82;100117.39;106037;1252;62605;-73
2023/05/22 00:29:51;;;;;;;10.70;7.20;;;;;;;12.28;63.66;100115.07;106025;1250;62716;-72
2023/05/22 00:32:18;;;;;;;10.60;7.00;;;;;;;12.27;63.79;100113.41;106011;1251;74347;-74
2023/05/22 00:34:44;;;;;;;10.60;7.10;;;;;;;12.22;63.76;100107.69;105850;1253;72762;-75
2023/05/22 00:37:11;;;;;;;8.00;6.80;;;;;;;12.15;64.02;100102.41;105839;1256;74763;-74
2023/05/22 00:39:38;;;;;;;8.00;6.70;;;;;;;12.10;64.13;100101.52;106148;1258;61166;-73
2023/05/22 00:42:05;;;;;;;7.10;6.00;;;;;;;12.07;64.36;100103.19;106362;1258;61120;-74
2023/05/22 00:44:32;;;;;;;11.20;6.20;;;;;;;12.05;64.39;100105.55;106420;1253;75926;-73
2023/05/22 00:46:59;;;;;;;7.80;6.70;;;;;;;12.04;64.38;100103.70;106270;1251;71658;-74
2023/05/22 00:49:27;;;;;;;8.10;6.20;;;;;;;12.03;64.55;100102.70;106403;1258;74739;-76
2023/05/22 00:51:54;;;;;;;11.70;6.20;;;;;;;12.02;64.51;100105.86;106515;1253;60991;-74
2023/05/22 00:54:21;;;;;;;8.10;6.70;;;;;;;12.01;64.35;100100.77;106509;1250;61159;-72
2023/05/22 00:56:48;;;;;;;7.60;6.50;;;;;;;12.01;64.75;100096.52;105990;1253;74681;-75
2023/05/22 00:59:16;;;;;;;9.10;6.50;;;;;;;11.99;64.68;100099.08;106241;1253;71333;-74
2023/05/22 01:01:43;;;;;;;8.20;6.10;;;;;;;11.96;65.00;100097.02;106146;1254;74858;-73
2023/05/22 01:04:11;;;;;;;8.10;6.00;;;;;;;11.93;64.95;100094.75;106226;1254;60496;-71
2023/05/22 01:06:40;;;;;;;7.20;6.40;;;;;;;11.90;64.96;100095.23;105847;1253;61177;-72
2023/05/22 01:09:07;;;;;;;10.40;7.00;;;;;;;11.87;65.32;100096.29;106024;1253;74443;-71
2023/05/22 01:11:39;;;;;;;10.80;6.30;;;;;;;11.83;65.32;100091.34;106019;1253;71100;-73
2023/05/22 01:14:09;;;;;;;9.30;7.10;;;;;;;11.82;65.46;100093.27;106112;1254;74349;-74
2023/05/22 01:17:12;;;;;;;9.80;6.50;;;;;;;11.80;65.45;100091.48;106134;1254;60456;-75
2023/05/22 01:19:52;;;;;;;7.50;6.10;;;;;;;11.77;65.70;100092.37;106107;1256;60458;-74
2023/05/22 01:22:23;;;;;;;12.00;7.20;;;;;;;11.72;65.71;100096.07;106415;1257;75916;-75
2023/05/22 01:25:07;;;;;;;8.40;6.20;;;;;;;11.67;66.12;100094.54;106180;1258;71662;-74
2023/05/22 01:28:08;;;;;;;8.00;6.70;;;;;;;11.60;66.18;100091.91;106181;1259;75040;-73
2023/05/22 01:30:54;;;;;;;10.40;7.00;;;;;;;11.70;66.24;100086.92;106433;1254;62937;-73
2023/05/22 01:33:20;;;;;;;10.20;7.10;;;;;;;11.74;66.37;100084.52;106874;1256;60956;-75
2023/05/22 01:35:52;;;;;;;9.60;6.50;;;;;;;11.69;66.54;100080.99;106606;1251;73213;-72
2023/05/22 01:38:19;;;;;;;10.60;7.00;;;;;;;11.64;66.64;100079.61;106655;1259;71220;-71
2023/05/22 01:40:46;;;;;;;8.90;6.60;;;;;;;11.60;66.74;100076.58;106509;1251;73542;-71
2023/05/22 01:43:14;;;;;;;11.90;7.80;;;;;;;11.56;66.88;100079.40;106588;1253;62776;-73
2023/05/22 01:45:40;;;;;;;14.70;8.80;;;;;;;11.51;66.97;100076.02;106710;1253;60948;-70
2023/05/22 01:48:08;;;;;;;11.30;7.70;;;;;;;11.49;67.18;100075.69;106702;1251;75792;-71
2023/05/22 01:50:35;;;;;;;11.30;8.50;;;;;;;11.44;67.11;100078.54;106674;1253;71228;-72
2023/05/22 01:53:11;;;;;;;12.80;8.30;;;;;;;11.41;67.59;100081.87;107101;1256;73849;-73
2023/05/22 01:56:04;;;;;;;11.90;8.40;;;;;;;11.39;67.63;100081.92;107508;1253;61546;-73
2023/05/22 01:58:55;;;;;;;10.20;8.10;;;;;;;11.34;68.09;100083.31;108373;1251;61269;-72
2023/05/22 02:01:21;;;;;;;10.80;8.00;;;;;;;11.27;68.30;100083.10;108915;1251;74823;-72
2023/05/22 02:03:50;;;;;;;13.00;7.50;;;;;;;11.18;68.34;100080.97;108832;1253;71896;-72
2023/05/22 02:06:17;;;;;;;9.80;7.80;;;;;;;11.22;68.42;100079.51;107814;1253;73585;-72
2023/05/22 02:08:44;;;;;;;10.90;8.30;;;;;;;11.31;68.57;100076.63;107435;1257;61284;-71
2023/05/22 02:11:11;;;;;;;11.00;8.10;;;;;;;11.28;68.69;100077.56;107480;1257;60611;-72
2023/05/22 02:13:38;;;;;;;11.20;8.10;;;;;;;11.29;68.71;100081.70;107882;1252;74488;-71
2023/05/22 02:16:05;;;;;;;14.00;8.10;;;;;;;11.33;68.62;100082.78;107454;1251;72156;-72
2023/05/22 02:18:33;;;;;;;9.60;7.70;;;;;;;11.35;68.25;100085.54;108088;1253;73567;-72
2023/05/22 02:21:01;;;;;;;11.70;7.90;;;;;;;11.35;68.28;100090.70;108104;1251;61375;-72
2023/05/22 02:23:30;;;;;;;9.90;7.30;;;;;;;11.38;68.13;100089.03;107936;1253;62446;-73
2023/05/22 02:25:56;;;;;;;9.60;7.40;;;;;;;11.44;67.83;100087.78;107922;1251;74784;-72
2023/05/22 02:28:26;;;;;;;9.00;7.30;;;;;;;11.49;67.47;100088.98;106934;1260;70531;-73
2023/05/22 02:30:53;;;;;;;13.10;7.90;;;;;;;11.54;67.39;100086.55;107257;1256;73712;-72
2023/05/22 02:33:20;;;;;;;10.30;7.70;;;;;;;11.58;66.97;100086.02;107810;1251;60511;-72
2023/05/22 02:35:49;;;;;;;11.80;7.50;;;;;;;11.60;66.72;100081.70;108037;1253;61304;-71
2023/05/22 02:38:15;;;;;;;10.20;7.60;;;;;;;11.62;66.65;100081.73;106959;1256;75918;-72
2023/05/22 02:40:43;;;;;;;10.90;7.10;;;;;;;11.62;66.58;100081.20;107440;1258;71120;-72
2023/05/22 02:43:10;;;;;;;9.80;7.80;;;;;;;11.65;66.54;100080.02;107640;1254;72935;-74
2023/05/22 02:45:38;;;;;;;9.50;7.20;;;;;;;11.67;66.64;100077.02;106956;1255;62377;-74
2023/05/22 02:48:05;;;;;;;10.60;8.40;;;;;;;11.67;66.82;100078.01;106382;1257;60993;-75
2023/05/22 02:50:32;;;;;;;12.60;7.60;;;;;;;11.69;66.65;100080.49;106305;1257;74066;-72
2023/05/22 02:52:59;;;;;;;9.40;8.30;;;;;;;11.70;66.63;100082.34;106593;1258;70811;-71
2023/05/22 02:55:26;;;;;;;9.20;7.30;;;;;;;11.71;66.67;100083.60;106270;1257;73313;-73
2023/05/22 02:57:53;;;;;;;9.60;7.50;;;;;;;11.72;66.66;100082.23;106229;1258;60872;-69
2023/05/22 03:00:21;;;;;;;11.30;7.80;;;;;;;11.74;66.63;100085.73;105906;1257;61698;-71
2023/05/22 03:02:48;;;;;;;11.30;7.70;;;;;;;11.75;66.73;100086.72;105889;1256;75526;-71
2023/05/22 03:05:16;;;;;;;14.40;9.40;;;;;;;11.74;66.78;100088.98;106219;1251;72057;-71
2023/05/22 03:07:44;;;;;;;10.50;7.90;;;;;;;11.75;66.42;100092.91;106336;1251;73627;-71
2023/05/22 03:10:14;;;;;;;9.50;7.30;;;;;;;11.78;66.49;100094.00;105970;1257;61156;-73
2023/05/22 03:12:41;;;;;;;14.20;8.60;;;;;;;11.82;66.47;100092.01;105876;1254;62150;-76
2023/05/22 03:15:09;;;;;;;12.40;7.80;;;;;;;11.96;66.29;100088.85;106231;1252;73709;-73
2023/05/22 03:17:37;;;;;;;9.90;7.50;;;;;;;12.12;66.09;100082.21;105991;1259;70639;-73
2023/05/22 03:20:07;;;;;;;11.70;8.40;;;;;;;12.19;65.87;100087.27;105976;1259;74615;-73
2023/05/22 03:22:34;;;;;;;10.30;8.20;;;;;;;12.25;65.86;100082.65;106349;1254;62365;-71
2023/05/22 03:25:02;;;;;;;11.50;7.70;;;;;;;12.31;65.57;100087.69;106253;1253;61044;-74
2023/05/22 03:27:29;;;;;;;13.20;8.20;;;;;;;12.39;65.56;100088.02;105954;1258;74583;-74
2023/05/22 03:29:56;;;;;;;14.70;8.90;;;;;;;12.45;65.51;100090.58;106161;1257;72322;-72
2023/05/22 03:32:23;;;;;;;12.10;8.40;;;;;;;12.51;65.21;100090.86;106104;1257;74832;-72
2023/05/22 03:34:50;;;;;;;10.30;7.90;;;;;;;12.55;65.25;100086.94;105924;1256;61133;-73
2023/05/22 03:37:18;;;;;;;11.60;8.90;;;;;;;12.60;65.22;100089.13;105925;1260;60442;-74
2023/05/22 03:39:45;;;;;;;13.20;8.40;;;;;;;12.64;65.09;100089.60;106115;1253;74980;-74
2023/05/22 03:42:25;;;;;;;11.40;7.90;;;;;;;12.69;64.96;100089.35;106020;1259;72101;-74
2023/05/22 03:44:52;;;;;;;14.30;7.60;;;;;;;12.74;64.97;100088.89;105967;1257;75530;-73
2023/05/22 03:47:19;;;;;;;13.40;8.40;;;;;;;12.79;64.93;100087.11;106071;1259;60515;-74
2023/05/22 03:49:46;;;;;;;14.00;8.70;;;;;;;12.84;64.65;100084.66;105721;1260;62873;-73
2023/05/22 03:52:13;;;;;;;13.40;7.70;;;;;;;12.89;64.54;100082.30;105880;1257;76095;-73
2023/05/22 03:54:40;;;;;;;9.60;7.60;;;;;;;12.96;64.33;100088.89;106003;1257;70911;-74
2023/05/22 03:57:07;;;;;;;13.10;8.60;;;;;;;13.01;64.27;100087.46;105725;1257;74368;-72
2023/05/22 03:59:36;;;;;;;11.80;7.90;;;;;;;13.07;64.07;100087.33;105694;1260;60610;-72
2023/05/22 04:02:04;;;;;;;14.00;7.30;;;;;;;13.14;64.06;100085.65;105833;1253;62137;-72
2023/05/22 04:04:32;;;;;;;9.30;7.10;;;;;;;13.22;63.90;100085.52;105900;1258;75646;-73
2023/05/22 04:07:01;;;;;;;10.00;7.10;;;;;;;13.28;63.49;100083.00;106065;1259;71506;-75
2023/05/22 04:09:30;;;;;;;8.80;7.00;;;;;;;13.35;62.91;100081.14;106044;1251;73227;-73
2023/05/22 04:11:57;;;;;;;11.10;7.70;;;;;;;13.43;62.96;100081.11;106172;1255;62037;-77
2023/05/22 04:14:24;;;;;;;11.30;7.80;;;;;;;13.52;62.65;100083.74;106081;1253;62294;-73
2023/05/22 04:16:52;;;;;;;9.00;7.20;;;;;;;13.62;62.43;100081.00;106070;1253;75733;-74
2023/05/22 04:19:19;;;;;;;10.60;7.30;;;;;;;13.73;62.15;100082.38;105951;1255;71973;-76
2023/05/22 04:21:47;;;;;;;12.40;7.20;;;;;;;13.91;61.59;100081.35;105918;1257;72831;-72
2023/05/22 04:24:17;;;;;;;9.40;7.10;;;;;;;14.10;60.79;100078.27;106036;1257;62513;-75
2023/05/22 04:26:43;;;;;;;10.60;7.50;;;;;;;14.27;60.10;100080.52;105900;1258;62254;-76
2023/05/22 04:29:13;;;;;;;10.00;6.90;;;;;;;14.39;59.60;100080.77;105937;1252;75804;-74
2023/05/22 04:31:40;;;;;;;11.30;8.20;;;;;;;14.51;59.43;100078.97;106184;1253;71771;-75
2023/05/22 04:34:14;;;;;;;8.20;6.70;;;;;;;14.62;58.73;100083.07;105841;1265;75025;-75
2023/05/22 04:36:43;;;;;;;9.70;7.50;;;;;;;14.74;58.46;100080.23;105981;1258;61419;-75
2023/05/22 04:39:12;;;;;;;10.40;7.40;;;;;;;14.84;58.08;100078.63;105841;1256;61244;-76
2023/05/22 04:41:39;;;;;;;6.70;5.90;;;;;;;14.95;57.61;100075.12;106184;1256;75854;-76
2023/05/22 04:44:07;;;;;;;10.70;7.50;;;;;;;15.05;57.38;100069.60;106084;1256;72186;-74
2023/05/22 04:46:34;;;;;;;14.20;6.70;;;;;;;15.16;57.10;100069.55;106112;1254;73832;-76
2023/05/22 04:49:02;;;;;;;9.10;6.40;;;;;;;15.27;56.61;100069.54;105821;1258;61439;-75
2023/05/22 04:51:33;;;;;;;9.60;7.00;;;;;;;15.52;56.32;100072.45;105519;1254;610694;-74
2023/05/22 04:55:23;;;;;;;10.30;6.70;;;;;;;16.02;55.36;100066.85;102409;1295;603477;-75
2023/05/22 04:57:52;;;;;;;8.50;6.20;;;;;;;16.25;54.30;100066.92;104984;1269;59569;-74
2023/05/22 05:00:25;;;;;;;6.80;5.60;;;;;;;16.37;53.39;100066.65;105446;1269;59353;-76
2023/05/22 05:02:52;;;;;;;12.40;6.00;;;;;;;16.49;53.13;100068.00;105321;1267;72372;-75
2023/05/22 05:05:19;;;;;;;11.30;5.90;;;;;;;16.63;52.37;100062.90;105264;1265;70516;-73
2023/05/22 05:07:47;;;;;;;9.10;5.70;;;;;;;16.75;51.92;100061.27;104972;1269;221974;-78
2023/05/22 05:10:16;;;;;;;7.50;5.10;;;;;;;16.85;51.81;100062.98;105499;1265;59580;-74
2023/05/22 05:12:43;;;;;;;6.40;5.70;;;;;;;16.96;51.64;100060.25;105412;1264;60104;-78
2023/05/22 05:15:10;;;;;;;10.10;5.70;;;;;;;17.08;51.47;100058.67;105509;1266;72727;-76
2023/05/22 05:17:37;;;;;;;10.20;5.50;;;;;;;17.21;51.27;100060.52;105570;1265;71367;-77
2023/05/22 05:20:06;;;;;;;10.10;6.10;;;;;;;17.32;50.80;100060.48;105830;1256;73701;-76
2023/05/22 05:22:33;;;;;;;10.90;6.20;;;;;;;17.37;50.41;100060.33;105962;1259;60320;-76
2023/05/22 05:25:01;;;;;;;8.60;5.00;;;;;;;17.39;50.07;100059.88;105872;1261;59729;-76
2023/05/22 05:27:29;;;;;;;6.20;5.30;;;;;;;17.42;50.11;100061.16;106080;1253;72552;-77
2023/05/22 05:29:58;;;;;;;8.50;5.00;;;;;;;17.46;50.12;100061.63;105909;1254;69602;-77
2023/05/22 05:32:33;;;;;;;8.10;5.30;;;;;;;17.50;49.98;100062.71;105803;1256;73385;-75
2023/05/22 05:35:29;;;;;;;7.50;5.80;;;;;;;17.55;49.82;100061.80;105843;1259;59726;-75
2023/05/22 05:38:07;;;;;;;8.20;5.20;;;;;;;17.61;49.91;100059.16;105983;1254;59805;-86
2023/05/22 05:40:35;;;;;;;10.50;5.30;;;;;;;17.67;50.03;100058.61;106439;1254;74075;-82
2023/05/22 05:43:05;;;;;;;7.10;5.60;;;;;;;17.71;49.64;100059.89;106985;1254;72041;-85
2023/05/22 05:45:35;;;;;;;8.90;5.10;;;;;;;17.75;49.50;100062.08;106330;1254;72932;-84
2023/05/22 05:48:02;;;;;;;7.70;5.10;;;;;;;17.81;49.59;100055.46;106321;1260;60378;-83
2023/05/22 05:50:29;;;;;;;11.70;5.80;;;;;;;17.89;49.55;100049.66;106325;1254;61241;-84
2023/05/22 05:52:56;;;;;;;7.20;5.50;;;;;;;17.96;49.21;100053.25;106612;1253;73257;-86
2023/05/22 05:55:23;;;;;;;8.20;5.60;;;;;;;18.02;49.02;100047.17;106496;1254;69458;-77
2023/05/22 05:57:51;;;;;;;8.60;5.20;;;;;;;18.10;48.90;100052.15;105779;1257;72397;-78
2023/05/22 06:00:24;;;;;;;8.10;5.60;;;;;;;18.20;48.70;100049.02;105991;1259;61302;-78
2023/05/22 06:02:52;;;;;;;7.70;4.50;;;;;;;18.25;48.56;100050.23;105822;1260;59770;-78
2023/05/22 06:05:32;;;;;;;8.30;5.20;;;;;;;18.29;48.35;100046.35;106060;1260;73283;-77
2023/05/22 06:08:09;;;;;;;7.10;4.60;;;;;;;18.33;48.36;100046.77;106084;1254;71414;-79
2023/05/22 06:10:36;;;;;;;7.30;5.10;;;;;;;18.38;48.40;100046.21;105850;1256;71487;-78
2023/05/22 06:13:15;;;;;;;7.80;4.80;;;;;;;18.45;48.51;100044.81;106346;1253;59666;-80
2023/05/22 06:15:42;;;;;;;9.90;5.10;;;;;;;18.53;48.35;100045.61;106669;1256;59641;-77
2023/05/22 06:18:08;;;;;;;7.50;4.50;;;;;;;18.58;48.04;100042.41;106157;1256;74035;-79
2023/05/22 06:20:36;;;;;;;8.00;4.70;;;;;;;18.61;47.99;100041.15;106469;1253;69558;-76
2023/05/22 06:23:04;;;;;;;6.90;4.20;;;;;;;18.67;47.86;100044.28;106543;1254;72932;-78
2023/05/22 06:25:31;;;;;;;7.20;4.30;;;;;;;18.74;47.59;100040.57;106400;1253;61398;-78
2023/05/22 06:27:57;;;;;;;5.20;4.30;;;;;;;18.80;47.04;100036.98;106015;1258;59633;-80
2023/05/22 06:30:25;;;;;;;4.90;3.60;;;;;;;18.86;46.63;100034.39;106145;1251;73901;-78
2023/05/22 06:33:07;;;;;;;7.70;3.80;;;;;;;18.93;46.18;100039.70;106114;1253;71046;-79
2023/05/22 06:35:34;;;;;;;4.60;3.80;;;;;;;18.97;46.11;100035.83;106291;1255;71353;-79
2023/05/22 06:38:01;;;;;;;4.80;3.50;;;;;;;19.02;46.08;100038.33;107077;1255;59631;-79
2023/05/22 06:40:28;;;;;;;5.10;4.10;;;;;;;19.08;46.23;100037.96;107349;1253;59605;-77
2023/05/22 06:43:01;;;;;;;7.00;3.80;;;;;;;19.15;46.20;100034.94;106461;1254;74130;-79
2023/05/22 06:45:47;;;;;;;6.30;3.90;;;;;;;19.19;46.17;100034.19;106021;1257;68180;-79
2023/05/22 06:48:38;;;;;;;5.20;4.30;;;;;;;19.26;46.21;100034.53;105894;1253;74170;-80
2023/05/22 06:51:21;;;;;;;6.10;4.30;;;;;;;19.31;46.15;100039.23;106429;1253;59751;-77
2023/05/22 06:53:50;;;;;;;7.20;4.80;;;;;;;19.34;46.08;100034.77;106117;1252;59519;-79
2023/05/22 06:56:21;;;;;;;8.10;4.50;;;;;;;19.37;46.10;100033.13;105979;1252;73279;-78
2023/05/22 06:58:53;;;;;;;6.10;4.00;;;;;;;19.42;45.75;100033.29;106338;1253;70386;-78
2023/05/22 07:01:22;;;;;;;4.50;3.80;;;;;;;19.46;45.68;100036.83;106379;1258;73548;-79
2023/05/22 07:04:00;;;;;;;5.40;3.80;;;;;;;19.48;45.70;100032.52;106224;1253;61051;-77
2023/05/22 07:06:37;;;;;;;4.80;4.20;;;;;;;19.51;45.79;100028.50;106031;1256;60120;-79
2023/05/22 07:09:05;;;;;;;5.80;4.00;;;;;;;19.54;45.83;100024.79;106309;1251;72103;-79
2023/05/22 07:11:32;;;;;;;5.20;4.10;;;;;;;19.60;45.50;100023.17;106183;1256;70379;-79
2023/05/22 07:14:00;;;;;;;6.60;4.00;;;;;;;19.66;45.60;100023.44;106370;1253;72872;-78
2023/05/22 07:16:29;;;;;;;6.20;3.80;;;;;;;19.72;45.43;100021.99;106417;1256;59721;-78
2023/05/22 07:18:57;;;;;;;5.90;4.10;;;;;;;19.80;45.30;100021.27;106222;1253;61291;-78
2023/05/22 07:21:24;;;;;;;4.10;3.60;;;;;;;19.86;45.13;100015.10;106302;1254;73712;-78
2023/05/22 07:23:51;;;;;;;3.40;3.10;;;;;;;19.93;44.49;100016.59;106181;1256;69310;-78
2023/05/22 07:26:18;;;;;;;5.70;3.40;;;;;;;19.96;44.31;100013.11;106466;1259;70505;-76
2023/05/22 07:28:50;;;;;;;4.70;3.30;;;;;;;20.01;43.97;100013.93;106704;1253;59733;-77
2023/05/22 07:31:17;;;;;;;4.70;3.20;;;;;;;20.05;43.42;100008.66;107121;1251;59856;-78
2023/05/22 07:33:45;;;;;;;6.00;3.00;;;;;;;20.07;43.45;100004.20;106664;1254;73385;-79
2023/05/22 07:36:13;;;;;;;4.90;3.30;;;;;;;20.12;43.34;100009.30;106624;1250;69242;-79
2023/05/22 07:38:40;;;;;;;6.00;3.40;;;;;;;20.17;43.26;100014.13;106473;1256;72482;-78
2023/05/22 07:41:07;;;;;;;6.20;3.50;;;;;;;20.24;43.11;100016.34;106270;1256;60364;-75
2023/05/22 07:43:34;;;;;;;5.80;3.70;;;;;;;20.31;42.90;100014.88;106335;1253;61336;-79
2023/05/22 07:46:01;;;;;;;5.10;2.80;;;;;;;20.37;42.90;100016.40;106350;1258;73333;-78
2023/05/22 07:48:35;;;;;;;5.70;3.50;;;;;;;20.41;41.94;100014.30;106240;1253;70785;-80
2023/05/22 07:51:02;;;;;;;18.00;13.20;;;;;;;20.39;42.00;100009.67;106002;1254;71964;-79
2023/05/22 07:53:30;;;;;;;4.30;3.70;;;;;;;20.42;42.27;100007.50;106025;1254;61398;-79
2023/05/22 07:55:57;;;;;;;4.80;2.80;;;;;;;20.49;42.07;100000.71;106105;1253;60370;-78
2023/05/22 07:58:25;;;;;;;5.30;3.40;;;;;;;20.54;41.72;99995.63;106334;1251;70858;-80
2023/05/22 08:00:53;;;;;;;3.90;2.70;;;;;;;20.58;41.88;99993.10;105915;1252;71163;-79
2023/05/22 08:03:20;;;;;;;4.30;3.00;;;;;;;20.66;41.80;99993.69;106013;1256;73632;-79
2023/05/22 08:05:50;;;;;;;4.70;2.90;;;;;;;20.76;41.66;99990.35;106092;1256;60531;-79
2023/05/22 08:08:17;;;;;;;4.90;3.00;;;;;;;20.85;41.15;99987.30;105994;1251;60556;-77
2023/05/22 08:10:44;;;;;;;4.00;2.90;;;;;;;20.90;40.89;99989.20;106074;1250;72295;-78
2023/05/22 08:13:30;;;;;;;12.80;3.10;;;;;;;20.92;41.02;99991.86;106049;1253;69606;-79
2023/05/22 08:15:56;;;;;;;5.00;2.80;;;;;;;21.00;41.03;99987.64;106079;1253;71805;-79
2023/05/22 08:18:27;;;;;;;3.80;2.60;;;;;;;21.10;40.77;99987.29;106125;1256;61628;-79
2023/05/22 08:20:55;;;;;;;3.90;2.70;;;;;;;21.19;40.25;99993.04;106147;1253;61303;-79
2023/05/22 08:23:22;;;;;;;2.90;2.40;;;;;;;21.28;40.30;99984.78;106090;1258;74006;-79
2023/05/22 08:25:49;;;;;;;3.50;3.00;;;;;;;21.41;40.47;99980.27;106079;1253;70982;-79
2023/05/22 08:28:16;;;;;;;4.60;2.20;;;;;;;21.56;40.30;99984.48;106086;1256;71973;-78
2023/05/22 08:30:42;;;;;;;3.90;2.90;;;;;;;21.69;40.06;99985.55;106159;1256;59616;-78
2023/05/22 08:33:10;;;;;;;6.20;2.70;;;;;;;21.83;39.93;99982.63;106164;1253;60226;-78
2023/05/22 08:35:37;;;;;;;4.40;2.90;;;;;;;21.96;39.45;99983.63;106339;1253;73058;-80
2023/05/22 08:38:04;;;;;;;5.40;2.70;;;;;;;22.09;39.35;99981.08;106661;1253;70146;-79
2023/05/22 08:40:35;;;;;;;5.70;3.60;;;;;;;22.24;39.51;99984.11;106156;1254;72797;-78
2023/05/22 08:43:03;;;;;;;4.60;2.70;;;;;;;22.45;39.01;99986.48;106149;1256;60096;-79
2023/05/22 08:45:34;;;;;;;4.50;3.00;;;;;;;22.62;38.27;99979.48;106120;1254;60273;-77
2023/05/22 08:48:04;;;;;;;3.90;2.90;;;;;;;22.73;38.04;99972.63;105959;1259;72927;-79
2023/05/22 08:50:35;;;;;;;5.30;3.10;;;;;;;22.86;38.04;99970.48;106148;1254;71262;-78
2023/05/22 08:53:02;;;;;;;4.30;3.00;;;;;;;23.04;37.97;99976.06;106217;1256;73157;-77
2023/05/22 08:55:29;;;;;;;5.40;2.40;;;;;;;23.26;37.68;99975.42;106158;1253;59996;-76
2023/05/22 08:57:56;;;;;;;4.90;2.80;;;;;;;23.47;37.15;99983.66;107576;1251;59652;-77
2023/05/22 09:00:22;;;;;;;6.50;2.60;;;;;;;23.64;36.83;99984.85;106777;1253;72933;-77
2023/05/22 09:02:49;;;;;;;3.00;2.70;;;;;;;23.82;36.34;99980.89;106315;1257;69195;-76
2023/05/22 09:05:16;;;;;;;3.60;3.00;;;;;;;23.97;35.72;99978.34;106390;1257;72693;-77
2023/05/22 09:07:44;;;;;;;3.50;3.20;;;;;;;24.18;35.63;99974.21;106123;1253;60670;-79
2023/05/22 09:10:12;;;;;;;3.70;3.10;;;;;;;24.43;35.42;99972.90;106227;1252;61111;-77
2023/05/22 09:13:06;;;;;;;6.40;3.40;;;;;;;24.69;35.16;99969.23;106406;1253;72940;-79
2023/05/22 09:15:35;;;;;;;4.60;3.60;;;;;;;25.02;34.14;99967.91;106336;1254;68574;-76
2023/05/22 09:18:03;;;;;;;4.10;2.60;;;;;;;25.31;34.03;99972.37;106443;1253;72669;-80
2023/05/22 09:20:37;;;;;;;3.00;2.50;;;;;;;25.73;33.32;99970.80;106551;1256;61547;-77
2023/05/22 09:23:16;;;;;;;5.30;3.40;;;;;;;26.17;33.04;99966.44;106293;1254;60425;-79
2023/05/22 09:25:44;;;;;;;4.70;3.70;;;;;;;26.75;32.45;99965.64;106505;1256;73274;-77
2023/05/22 09:28:11;;;;;;;6.40;3.40;;;;;;;27.30;32.18;99960.08;106561;1254;71370;-79
2023/05/22 09:30:38;;;;;;;3.40;2.90;;;;;;;27.84;31.69;99966.45;106353;1254;71828;-75
2023/05/22 09:33:07;;;;;;;3.30;2.70;;;;;;;28.41;30.85;99966.52;106817;1254;60402;-79
2023/05/22 09:35:35;;;;;;;4.20;3.50;;;;;;;28.93;30.52;99961.23;106409;1254;60438;-80
2023/05/22 09:38:02;;;;;;;4.90;3.40;;;;;;;29.50;30.12;99958.05;106362;1259;73884;-78
2023/05/22 09:40:33;;;;;;;6.40;3.50;;;;;;;30.07;29.57;99954.59;106497;1254;70589;-79
2023/05/22 09:43:01;;;;;;;5.20;3.80;;;;;;;30.56;29.02;99949.10;106751;1255;73920;-79
2023/05/22 09:45:28;;;;;;;4.80;2.90;;;;;;;31.00;28.26;99946.29;106456;1257;61796;-76
2023/05/22 09:47:56;;;;;;;3.50;3.20;;;;;;;31.35;28.17;99943.96;106852;1256;60336;-77
2023/05/22 09:50:23;;;;;;;3.40;3.00;;;;;;;31.76;27.90;99935.62;106714;1255;72003;-74
2023/05/22 09:52:50;;;;;;;4.60;3.50;;;;;;;32.22;27.24;99936.54;106488;1253;70454;-76
2023/05/22 09:55:17;;;;;;;4.10;3.10;;;;;;;32.57;26.90;99940.99;106571;1252;71828;-75
2023/05/22 09:57:44;;;;;;;5.30;2.90;;;;;;;32.84;26.44;99936.45;107892;1255;60953;-74
2023/05/22 10:00:17;;;;;;;3.80;3.10;;;;;;;32.99;26.16;99933.16;107743;1253;60415;-77
2023/05/22 10:03:05;;;;;;;3.80;3.00;;;;;;;33.18;26.02;99933.66;108118;1252;73998;-75
2023/05/22 10:05:33;;;;;;;3.80;3.30;;;;;;;33.50;25.70;99929.84;107967;1253;71146;-76
2023/05/22 10:08:03;;;;;;;4.50;4.10;;;;;;;33.78;25.55;99930.33;108006;1259;72204;-77
2023/05/22 10:10:30;;;;;;;4.30;3.90;;;;;;;33.99;24.95;99928.58;108437;1251;60337;-77
2023/05/22 10:13:02;;;;;;;4.60;2.90;;;;;;;33.97;24.88;99924.77;108708;1254;60233;-76
2023/05/22 10:15:30;;;;;;;2.60;2.20;;;;;;;33.75;24.91;99925.98;107996;1258;74844;-77
2023/05/22 10:17:57;;;;;;;3.50;2.50;;;;;;;33.43;24.92;99927.22;108732;1252;70288;-77
2023/05/22 10:20:25;;;;;;;3.40;2.50;;;;;;;33.40;25.01;99921.46;108286;1253;72561;-76
2023/05/22 10:22:53;;;;;;;2.90;2.60;;;;;;;33.51;24.68;99925.51;108389;1258;60931;-76
2023/05/22 10:25:24;;;;;;;2.80;2.40;;;;;;;33.67;24.52;99923.55;107616;1256;60415;-77
2023/05/22 10:27:51;;;;;;;4.00;2.50;;;;;;;33.85;24.51;99912.08;107586;1255;73872;-77
2023/05/22 10:30:49;;;;;;;4.70;2.50;;;;;;;34.20;24.26;99907.75;107776;1252;71362;-78
2023/05/22 10:33:38;;;;;;;7.30;2.70;;;;;;;34.74;24.38;99905.74;107894;1254;65244;-74
2023/05/22 10:36:23;;;;;;;2.40;2.20;;;;;;;35.04;24.08;99909.89;107990;1253;60495;-77
2023/05/22 10:38:56;;;;;;;2.80;2.40;;;;;;;34.98;23.83;99906.63;108141;1251;58004;-74
2023/05/22 10:41:23;;;;;;;3.10;2.80;;;;;;;34.65;24.03;99904.60;108294;1254;64849;-76
2023/05/22 10:43:50;;;;;;;4.40;2.70;;;;;;;34.20;24.47;99907.91;107418;1253;70590;-75
2023/05/22 10:46:17;;;;;;;3.50;2.80;;;;;;;33.95;24.80;99908.05;107460;1255;71665;-75
2023/05/22 10:48:48;;;;;;;5.20;3.00;;;;;;;33.88;25.16;99904.44;107191;1254;60432;-75
2023/05/22 10:51:18;;;;;;;3.20;2.90;;;;;;;34.12;25.05;99901.38;107360;1256;60936;-75
2023/05/22 10:53:52;;;;;;;3.40;2.70;;;;;;;34.39;24.73;99896.26;107518;1251;73293;-75
2023/05/22 10:56:19;;;;;;;2.50;2.30;;;;;;;34.70;24.42;99887.41;107617;1254;69608;-75
2023/05/22 10:58:56;;;;;;;9.90;9.20;;;;;;;34.96;24.27;99888.15;107563;1256;64655;-76
2023/05/22 11:01:26;;;;;;;3.60;2.60;;;;;;;35.39;24.05;99881.39;107291;1254;60519;-75
2023/05/22 11:04:05;;;;;;;5.00;2.70;;;;;;;35.84;23.58;99876.42;107341;1251;60501;-76
2023/05/22 11:06:47;;;;;;;3.70;2.60;;;;;;;36.16;23.33;99875.02;107201;1259;66025;-75
2023/05/22 11:09:27;;;;;;;4.20;3.10;;;;;;;36.49;23.26;99876.16;107284;1256;61586;-75
2023/05/22 11:12:16;;;;;;;2.80;2.60;;;;;;;36.92;22.93;99869.48;107146;1257;63892;-77
2023/05/22 11:14:50;;;;;;;3.00;2.60;;;;;;;37.29;22.54;99874.32;107293;1251;59378;-73
2023/05/22 11:17:27;;;;;;;3.70;2.60;;;;;;;37.51;22.33;99871.89;107552;1252;60378;-75
2023/05/22 11:19:58;;;;;;;2.70;2.50;;;;;;;37.68;22.05;99873.25;107466;1251;64310;-75
2023/05/22 11:22:32;;;;;;;2.60;2.40;;;;;;;37.87;21.97;99872.63;107579;1251;61736;-75
2023/05/22 11:25:00;;;;;;;3.00;2.70;;;;;;;38.05;21.58;99870.12;108162;1253;64797;-76
2023/05/22 11:27:27;;;;;;;2.70;2.40;;;;;;;38.19;21.72;99867.52;108617;1252;59190;-74
2023/05/22 11:29:54;;;;;;;5.90;3.00;;;;;;;38.45;21.57;99859.95;109142;1253;58216;-75